createdAt,value
2019-01-12T00:01:33.482Z,1999.90
2019-01-12T00:04:03.064Z,1999.90
2019-01-12T00:06:32.530Z,1999.90
2019-01-12T00:09:01.946Z,1999.90
2019-01-12T00:11:31.435Z,1999.90
2019-01-12T00:14:01.225Z,31.53
2019-01-12T00:16:32.539Z,1999.90
2019-01-12T00:19:02.008Z,55.87
2019-01-12T00:21:31.388Z,13.80
2019-01-12T00:24:00.778Z,17.73
2019-01-12T00:26:30.168Z,19.23
2019-01-12T00:28:59.598Z,30.00
2019-01-12T00:31:30.593Z,1066.23
2019-01-12T00:34:00.000Z,1999.90
2019-01-12T00:36:29.531Z,1999.90
2019-01-12T00:38:59.202Z,1999.90
2019-01-12T00:41:28.610Z,1999.90
2019-01-12T00:43:58.100Z,1999.90
2019-01-12T00:46:27.660Z,1999.90
2019-01-12T00:48:57.158Z,1999.90
2019-01-12T00:51:27.034Z,14.53
2019-01-12T00:54:11.319Z,83.83
2019-01-12T00:56:41.106Z,1999.90
2019-01-12T00:59:10.563Z,68.67
2019-01-12T01:01:40.038Z,1999.90
2019-01-12T01:04:09.994Z,1999.90
2019-01-12T01:06:39.469Z,1999.90
2019-01-12T01:09:09.654Z,1999.90
2019-01-12T01:11:39.151Z,1999.90
2019-01-12T01:14:08.637Z,1999.90
2019-01-12T01:16:38.253Z,10.13
2019-01-12T01:19:08.120Z,15.80
2019-01-12T01:21:37.615Z,14.37
2019-01-12T01:24:07.152Z,12.27
2019-01-12T01:26:36.918Z,38.83
2019-01-12T01:29:06.375Z,1999.90
2019-01-12T01:31:35.854Z,1999.90
2019-01-12T01:34:05.637Z,1999.90
2019-01-12T01:36:35.544Z,1999.90
2019-01-12T01:39:07.561Z,1999.90
2019-01-12T01:41:37.023Z,1999.90
2019-01-12T01:44:06.486Z,1999.90
2019-01-12T01:46:36.030Z,1999.90
2019-01-12T01:49:19.747Z,1999.90
2019-01-12T01:51:49.398Z,1999.90
2019-01-12T01:54:18.949Z,1999.90
2019-01-12T01:56:48.621Z,1999.90
2019-01-12T01:59:18.339Z,1999.90
2019-01-12T02:01:47.816Z,1999.90
2019-01-12T02:04:17.977Z,1999.90
2019-01-12T02:06:47.591Z,1999.90
2019-01-12T02:09:17.063Z,1999.90
2019-01-12T02:11:46.755Z,1999.90
2019-01-12T02:14:16.239Z,50.47
2019-01-12T02:16:45.646Z,26.70
2019-01-12T02:19:15.172Z,1999.90
2019-01-12T02:21:44.574Z,1999.90
2019-01-12T02:24:14.030Z,1999.90
2019-01-12T02:26:43.413Z,13.50
2019-01-12T02:29:12.863Z,11.30
2019-01-12T02:31:42.319Z,14.30
2019-01-12T02:34:11.985Z,15.67
2019-01-12T02:36:41.654Z,18.23
2019-01-12T02:39:11.041Z,13.97
2019-01-12T02:41:40.755Z,11.87
2019-01-12T02:44:10.107Z,15.90
2019-01-12T02:46:39.665Z,22.80
2019-01-12T02:49:09.020Z,15.10
2019-01-12T02:51:39.952Z,21.10
2019-01-12T02:54:09.433Z,20.53
2019-01-12T02:56:38.895Z,19.23
2019-01-12T02:59:08.422Z,14.87
2019-01-12T03:01:37.944Z,15.23
2019-01-12T03:04:08.945Z,11.67
2019-01-12T03:06:38.725Z,16.97
2019-01-12T03:09:08.466Z,149.33
2019-01-12T03:11:38.066Z,171.93
2019-01-12T03:14:07.567Z,10.00
2019-01-12T03:16:37.026Z,16.90
2019-01-12T03:19:06.751Z,18.23
2019-01-12T03:21:36.220Z,14.83
2019-01-12T03:24:05.836Z,14.10
2019-01-12T03:26:35.287Z,29.67
2019-01-12T03:29:04.986Z,15.73
2019-01-12T03:31:43.994Z,317.03
2019-01-12T03:34:13.754Z,13.77
2019-01-12T03:36:43.287Z,49.43
2019-01-12T03:39:12.743Z,10.43
2019-01-12T03:41:42.152Z,500.83
2019-01-12T03:44:11.689Z,1999.90
2019-01-12T03:46:41.287Z,56.10
2019-01-12T03:49:10.675Z,17.50
2019-01-12T03:51:40.244Z,154.40
2019-01-12T03:54:09.842Z,1999.90
2019-01-12T03:56:39.194Z,7.27
2019-01-12T03:59:08.871Z,395.53
2019-01-12T04:01:38.304Z,1999.90
2019-01-12T04:04:07.764Z,630.60
2019-01-12T04:06:37.140Z,612.33
2019-01-12T04:09:08.095Z,1342.07
2019-01-12T04:11:37.515Z,1556.23
2019-01-12T04:14:07.157Z,261.10
2019-01-12T04:16:36.727Z,860.57
2019-01-12T04:19:06.202Z,1999.90
2019-01-12T04:21:35.647Z,1999.90
2019-01-12T04:24:05.306Z,1999.90
2019-01-12T04:26:34.675Z,1999.90
2019-01-12T04:29:04.293Z,1999.90
2019-01-12T04:31:33.731Z,1999.90
2019-01-12T04:34:03.367Z,1999.90
2019-01-12T04:36:33.257Z,1999.90
2019-01-12T04:39:02.807Z,4.43
2019-01-12T04:41:32.160Z,10.97
2019-01-12T04:44:01.590Z,12.63
2019-01-12T04:46:30.942Z,9.17
2019-01-12T04:49:01.827Z,12.20
2019-01-12T04:51:31.516Z,14.57
2019-01-12T04:54:00.901Z,65.13
2019-01-12T04:56:30.256Z,152.10
2019-01-12T04:58:59.734Z,1999.90
2019-01-12T05:01:30.633Z,110.87
2019-01-12T05:04:00.024Z,6.57
2019-01-12T05:06:29.459Z,4.70
2019-01-12T05:08:58.838Z,7.80
2019-01-12T05:11:28.332Z,5.77
2019-01-12T05:13:57.826Z,6.33
2019-01-12T05:16:27.210Z,5.13
2019-01-12T05:18:56.663Z,3.77
2019-01-12T05:21:26.012Z,5.00
2019-01-12T05:23:55.464Z,7.13
2019-01-12T05:26:24.893Z,6.03
2019-01-12T05:28:54.287Z,38.53
2019-01-12T05:31:23.793Z,4.67
2019-01-12T05:33:53.312Z,6.43
2019-01-12T05:36:22.656Z,8.10
2019-01-12T05:38:52.123Z,14.30
2019-01-12T05:41:21.628Z,7.93
2019-01-12T05:43:51.014Z,6.13
2019-01-12T05:46:20.430Z,17.23
2019-01-12T05:48:49.937Z,11.70
2019-01-12T05:51:20.931Z,5.07
2019-01-12T05:53:50.561Z,6.43
2019-01-12T05:56:21.549Z,8.17
2019-01-12T05:58:50.989Z,18.23
2019-01-12T06:01:22.015Z,101.57
2019-01-12T06:03:51.626Z,7.73
2019-01-12T06:06:21.344Z,16.77
2019-01-12T06:08:50.736Z,77.90
2019-01-12T06:11:20.269Z,9.30
2019-01-12T06:13:50.323Z,7.77
2019-01-12T06:16:19.667Z,5.53
2019-01-12T06:18:49.116Z,6.80
2019-01-12T06:21:18.544Z,7.20
2019-01-12T06:23:48.143Z,8.80
2019-01-12T06:26:17.492Z,6.70
2019-01-12T06:28:47.077Z,7.90
2019-01-12T06:31:16.492Z,7.70
2019-01-12T06:33:47.672Z,6.30
2019-01-12T06:36:17.364Z,7.17
2019-01-12T06:38:46.810Z,8.77
2019-01-12T06:41:16.293Z,6.33
2019-01-12T06:43:45.899Z,7.93
2019-01-12T06:46:15.938Z,5.87
2019-01-12T06:48:45.326Z,8.87
2019-01-12T06:51:14.838Z,8.60
2019-01-12T06:53:44.247Z,8.03
2019-01-12T06:56:13.691Z,8.20
2019-01-12T06:58:43.081Z,7.27
2019-01-12T07:01:12.566Z,7.93
2019-01-12T07:03:41.963Z,9.53
2019-01-12T07:06:11.406Z,10.43
2019-01-12T07:09:00.130Z,15.27
2019-01-12T07:11:29.568Z,12.23
2019-01-12T07:13:59.300Z,10.77
2019-01-12T07:16:28.915Z,15.77
2019-01-12T07:18:58.469Z,10.07
2019-01-12T07:21:27.918Z,10.93
2019-01-12T07:23:57.340Z,13.43
2019-01-12T07:26:26.733Z,13.87
2019-01-12T07:28:56.261Z,15.23
2019-01-12T07:31:25.794Z,15.80
2019-01-12T07:33:55.549Z,10.70
2019-01-12T07:36:25.133Z,18.33
2019-01-12T07:38:55.233Z,9.37
2019-01-12T07:41:24.699Z,17.47
2019-01-12T07:43:54.118Z,18.60
2019-01-12T07:46:23.582Z,15.77
2019-01-12T07:48:53.336Z,15.77
2019-01-12T07:51:22.800Z,13.47
2019-01-12T07:53:52.219Z,18.10
2019-01-12T07:56:24.553Z,18.67
2019-01-12T07:58:52.805Z,21.07
2019-01-12T08:01:22.263Z,18.50
2019-01-12T08:03:52.010Z,95.93
2019-01-12T08:06:21.612Z,21.60
2019-01-12T08:08:51.078Z,19.47
2019-01-12T08:11:21.201Z,23.37
2019-01-12T08:13:50.551Z,20.70
2019-01-12T08:16:20.066Z,21.13
2019-01-12T08:18:49.567Z,26.23
2019-01-12T08:21:19.097Z,21.60
2019-01-12T08:23:48.604Z,26.07
2019-01-12T08:26:18.199Z,28.83
2019-01-12T08:28:47.777Z,27.60
2019-01-12T08:31:17.637Z,25.93
2019-01-12T08:33:47.098Z,29.57
2019-01-12T08:36:16.490Z,28.33
2019-01-12T08:38:45.977Z,26.40
2019-01-12T08:41:15.452Z,31.37
2019-01-12T08:43:44.917Z,27.37
2019-01-12T08:46:14.316Z,46.97
2019-01-12T08:48:43.673Z,49.33
2019-01-12T08:51:13.180Z,33.17
2019-01-12T08:53:42.605Z,35.00
2019-01-12T08:56:12.073Z,30.77
2019-01-12T08:58:41.500Z,27.93
2019-01-12T09:01:10.959Z,30.13
2019-01-12T09:03:40.388Z,40.03
2019-01-12T09:06:09.995Z,31.03
2019-01-12T09:08:39.427Z,31.87
2019-01-12T09:11:08.884Z,35.70
2019-01-12T09:13:38.465Z,34.53
2019-01-12T09:16:08.102Z,27.77
2019-01-12T09:18:37.603Z,30.37
2019-01-12T09:21:07.005Z,29.90
2019-01-12T09:23:36.552Z,33.00
2019-01-12T09:26:05.963Z,29.33
2019-01-12T09:28:36.935Z,26.03
2019-01-12T09:31:06.411Z,28.07
2019-01-12T09:33:35.902Z,26.97
2019-01-12T09:36:05.586Z,23.83
2019-01-12T09:38:35.227Z,26.83
2019-01-12T09:41:04.967Z,24.53
2019-01-12T09:43:34.325Z,30.50
2019-01-12T09:46:04.114Z,27.87
2019-01-12T09:48:33.483Z,26.83
2019-01-12T09:51:02.961Z,21.53
2019-01-12T09:53:32.386Z,20.23
2019-01-12T09:56:01.770Z,19.77
2019-01-12T09:58:31.138Z,22.50
2019-01-12T10:01:00.608Z,19.87
2019-01-12T10:03:30.040Z,18.80
2019-01-12T10:05:59.508Z,19.33
2019-01-12T10:08:28.968Z,15.67
2019-01-12T10:10:58.387Z,12.53
2019-01-12T10:13:27.811Z,15.87
2019-01-12T10:15:57.211Z,16.93
2019-01-12T10:18:26.702Z,15.23
2019-01-12T10:20:56.230Z,14.70
2019-01-12T10:23:27.442Z,18.33
2019-01-12T10:25:56.846Z,14.33
2019-01-12T10:28:26.198Z,12.80
2019-01-12T10:30:55.654Z,19.30
2019-01-12T10:33:25.568Z,17.63
2019-01-12T10:35:54.960Z,66.77
2019-01-12T10:38:24.477Z,49.50
2019-01-12T10:40:54.067Z,18.83
2019-01-12T10:43:23.485Z,118.40
2019-01-12T10:45:52.852Z,157.30
2019-01-12T10:48:22.319Z,440.93
2019-01-12T10:50:51.713Z,903.60
2019-01-12T10:53:21.322Z,31.93
2019-01-12T10:55:50.966Z,11.90
2019-01-12T10:58:20.704Z,18.70
2019-01-12T11:00:50.250Z,222.63
2019-01-12T11:03:19.928Z,559.97
2019-01-12T11:05:49.343Z,1999.90
2019-01-12T11:08:19.349Z,76.53
2019-01-12T11:10:48.809Z,49.83
2019-01-12T11:13:18.336Z,1999.90
2019-01-12T11:15:47.838Z,1999.90
2019-01-12T11:18:18.829Z,1999.90
2019-01-12T11:20:50.012Z,1999.90
2019-01-12T11:23:19.548Z,1999.90
2019-01-12T11:25:49.025Z,1999.90
2019-01-12T11:28:18.523Z,1999.90
2019-01-12T11:30:48.162Z,1999.90
2019-01-12T11:33:17.710Z,1999.90
2019-01-12T11:35:47.268Z,1999.90
2019-01-12T11:38:16.914Z,1999.90
2019-01-12T11:40:46.577Z,1999.90
2019-01-12T11:43:16.197Z,1999.90
2019-01-12T11:45:45.671Z,1999.90
2019-01-12T11:48:15.172Z,1999.90
2019-01-12T11:50:44.789Z,1999.90
2019-01-12T11:53:14.267Z,49.07
2019-01-12T11:55:43.822Z,1999.90
2019-01-12T11:58:13.296Z,1999.90
2019-01-12T12:00:42.922Z,1999.90
2019-01-12T12:03:13.866Z,1999.90
2019-01-12T12:05:44.863Z,21.50
2019-01-12T12:08:14.244Z,26.30
2019-01-12T12:10:43.715Z,25.63
2019-01-12T12:13:13.286Z,27.77
2019-01-12T12:15:43.242Z,18.77
2019-01-12T12:18:12.900Z,21.03
2019-01-12T12:20:42.478Z,21.80
2019-01-12T12:23:11.988Z,20.60
2019-01-12T12:25:41.451Z,70.57
2019-01-12T12:28:11.942Z,18.13
2019-01-12T12:30:54.016Z,21.07
2019-01-12T12:33:23.479Z,21.80
2019-01-12T12:35:52.920Z,88.20
2019-01-12T12:38:22.578Z,75.87
2019-01-12T12:40:51.975Z,32.47
2019-01-12T12:43:21.417Z,143.37
2019-01-12T12:45:51.030Z,32.40
2019-01-12T12:48:20.494Z,22.60
2019-01-12T12:50:49.930Z,92.03
2019-01-12T12:53:20.782Z,26.40
2019-01-12T12:55:50.707Z,29.07
2019-01-12T12:58:20.232Z,27.43
2019-01-12T13:00:49.812Z,22.53
2019-01-12T13:03:19.320Z,20.37
2019-01-12T13:05:48.749Z,28.23
2019-01-12T13:08:18.981Z,27.00
2019-01-12T13:10:48.508Z,26.90
2019-01-12T13:13:17.947Z,35.90
2019-01-12T13:15:47.539Z,23.00
2019-01-12T13:18:16.919Z,19.97
2019-01-12T13:20:46.481Z,23.57
2019-01-12T13:23:15.910Z,35.17
2019-01-12T13:25:45.697Z,26.33
2019-01-12T13:28:15.194Z,21.53
2019-01-12T13:30:44.638Z,20.67
2019-01-12T13:33:14.102Z,25.10
2019-01-12T13:35:43.563Z,24.60
2019-01-12T13:38:13.454Z,27.13
2019-01-12T13:40:43.656Z,27.63
2019-01-12T13:43:13.106Z,24.93
2019-01-12T13:45:42.554Z,26.17
2019-01-12T13:48:12.003Z,30.73
2019-01-12T13:50:41.631Z,35.17
2019-01-12T13:53:11.049Z,38.47
2019-01-12T13:55:40.505Z,29.93
2019-01-12T13:58:10.189Z,38.07
2019-01-12T14:00:39.810Z,22.97
2019-01-12T14:03:09.485Z,27.17
2019-01-12T14:05:40.571Z,20.63
2019-01-12T14:08:10.316Z,27.17
2019-01-12T14:10:39.793Z,26.20
2019-01-12T14:13:09.627Z,410.07
2019-01-12T14:15:39.180Z,1999.90
2019-01-12T14:18:09.232Z,519.27
2019-01-12T14:20:39.960Z,19.53
2019-01-12T14:23:11.276Z,32.23
2019-01-12T14:25:40.751Z,385.90
2019-01-12T14:28:10.483Z,596.30
2019-01-12T14:30:40.236Z,1999.90
2019-01-12T14:33:09.631Z,450.63
2019-01-12T14:35:39.156Z,23.93
2019-01-12T14:38:09.970Z,18.97
2019-01-12T14:40:39.347Z,24.83
2019-01-12T14:43:08.804Z,76.20
2019-01-12T14:45:38.228Z,31.67
2019-01-12T14:48:07.895Z,25.40
2019-01-12T14:50:37.379Z,31.13
2019-01-12T14:53:08.259Z,22.33
2019-01-12T14:55:37.795Z,32.73
2019-01-12T14:58:07.425Z,33.30
2019-01-12T15:00:36.921Z,31.43
2019-01-12T15:03:06.752Z,30.67
2019-01-12T15:05:36.407Z,26.57
2019-01-12T15:08:06.015Z,253.73
2019-01-12T15:10:36.958Z,390.93
2019-01-12T15:13:06.523Z,1999.90
2019-01-12T15:15:35.936Z,1999.90
2019-01-12T15:18:05.736Z,27.47
2019-01-12T15:20:36.870Z,26.07
2019-01-12T15:23:06.341Z,25.83
2019-01-12T15:25:35.759Z,25.00
2019-01-12T15:28:09.380Z,34.17
2019-01-12T15:30:36.761Z,69.77
2019-01-12T15:33:06.300Z,35.07
2019-01-12T15:35:35.800Z,25.73
2019-01-12T15:38:05.270Z,30.07
2019-01-12T15:40:34.873Z,30.63
2019-01-12T15:43:04.738Z,26.70
2019-01-12T15:45:34.295Z,32.80
2019-01-12T15:48:03.916Z,36.97
2019-01-12T15:50:33.444Z,27.53
2019-01-12T15:53:02.891Z,29.80
2019-01-12T15:55:32.315Z,28.87
2019-01-12T15:58:01.857Z,28.77
2019-01-12T16:00:32.796Z,23.37
2019-01-12T16:03:02.326Z,25.10
2019-01-12T16:05:31.845Z,23.03
2019-01-12T16:08:01.375Z,34.83
2019-01-12T16:10:31.101Z,28.67
2019-01-12T16:13:00.774Z,35.10
2019-01-12T16:15:30.277Z,28.57
2019-01-12T16:18:00.043Z,30.00
2019-01-12T16:20:35.036Z,23.23
2019-01-12T16:23:04.676Z,34.20
2019-01-12T16:25:34.240Z,25.10
2019-01-12T16:30:43.814Z,26.83
2019-01-12T16:33:13.595Z,31.73
2019-01-12T16:35:43.125Z,22.17
2019-01-12T16:38:12.935Z,35.40
2019-01-12T16:40:42.535Z,25.13
2019-01-12T16:43:12.135Z,32.53
2019-01-12T16:45:41.611Z,32.33
2019-01-12T16:48:11.050Z,21.80
2019-01-12T16:50:40.394Z,20.30
2019-01-12T16:53:09.847Z,31.90
2019-01-12T16:55:39.445Z,27.27
2019-01-12T16:58:08.973Z,27.13
2019-01-12T17:00:39.947Z,32.20
2019-01-12T17:03:09.327Z,22.90
2019-01-12T17:05:38.746Z,28.37
2019-01-12T17:08:08.294Z,29.93
2019-01-12T17:10:39.288Z,34.47
2019-01-12T17:13:08.744Z,31.70
2019-01-12T17:15:38.123Z,30.57
2019-01-12T17:18:07.575Z,28.03
2019-01-12T17:20:37.004Z,33.37
2019-01-12T17:23:06.553Z,28.60
2019-01-12T17:25:36.606Z,25.07
2019-01-12T17:28:06.170Z,25.37
2019-01-12T17:30:36.779Z,29.93
2019-01-12T17:33:06.438Z,30.63
2019-01-12T17:35:35.957Z,29.47
2019-01-12T17:38:05.580Z,27.27
2019-01-12T17:40:35.056Z,32.73
2019-01-12T17:43:04.869Z,24.70
2019-01-12T17:45:34.394Z,25.67
2019-01-12T17:48:03.960Z,30.53
2019-01-12T17:50:33.535Z,33.60
2019-01-12T17:53:03.115Z,33.33
2019-01-12T17:55:32.974Z,27.87
2019-01-12T17:58:02.431Z,32.30
2019-01-12T18:00:36.548Z,26.07
2019-01-12T18:03:05.987Z,33.63
2019-01-12T18:05:35.616Z,30.97
2019-01-12T18:08:05.366Z,34.10
2019-01-12T18:10:34.876Z,20.90
2019-01-12T18:13:04.562Z,20.77
2019-01-12T18:15:33.975Z,24.33
2019-01-12T18:18:03.342Z,21.57
2019-01-12T18:20:32.950Z,22.07
2019-01-12T18:23:02.440Z,26.40
2019-01-12T18:25:34.902Z,26.47
2019-01-12T18:28:04.765Z,25.60
2019-01-12T18:30:34.295Z,18.23
2019-01-12T18:33:03.790Z,27.20
2019-01-12T18:35:33.247Z,32.90
2019-01-12T18:38:02.735Z,34.97
2019-01-12T18:40:32.631Z,28.80
2019-01-12T18:43:02.319Z,22.17
2019-01-12T18:45:32.019Z,21.23
2019-01-12T18:48:01.399Z,30.53
2019-01-12T18:50:30.851Z,28.60
2019-01-12T18:53:00.359Z,32.47
2019-01-12T18:55:29.752Z,23.03
2019-01-12T18:57:59.535Z,31.93
2019-01-12T19:00:31.740Z,23.97
2019-01-12T19:03:01.141Z,32.77
2019-01-12T19:05:30.655Z,36.53
2019-01-12T19:08:00.301Z,23.97
2019-01-12T19:10:29.855Z,33.23
2019-01-12T19:12:59.250Z,29.80
2019-01-12T19:15:29.592Z,30.93
2019-01-12T19:17:59.395Z,25.43
2019-01-12T19:20:28.980Z,33.07
2019-01-12T19:22:58.550Z,29.67
2019-01-12T19:25:28.118Z,26.20
2019-01-12T19:27:57.674Z,39.50
2019-01-12T19:30:27.521Z,35.27
2019-01-12T19:32:57.120Z,28.93
2019-01-12T19:35:26.741Z,25.40
2019-01-12T19:37:57.823Z,28.50
2019-01-12T19:40:27.267Z,31.40
2019-01-12T19:42:56.860Z,26.70
2019-01-12T19:45:26.325Z,28.53
2019-01-12T19:47:55.843Z,31.90
2019-01-12T19:50:25.534Z,29.03
2019-01-12T19:52:55.235Z,38.03
2019-01-12T19:55:25.211Z,31.40
2019-01-12T19:57:54.713Z,28.77
2019-01-12T20:00:27.939Z,35.27
2019-01-12T20:02:57.429Z,35.73
2019-01-12T20:05:28.522Z,37.93
2019-01-12T20:07:58.063Z,35.93
2019-01-12T20:10:27.797Z,26.77
2019-01-12T20:12:57.321Z,28.10
2019-01-12T20:15:26.980Z,24.73
2019-01-12T20:17:56.466Z,29.40
2019-01-12T20:20:26.079Z,29.83
2019-01-12T20:22:55.678Z,31.07
2019-01-12T20:25:27.249Z,34.13
2019-01-12T20:27:57.063Z,28.47
2019-01-12T20:30:38.402Z,31.47
2019-01-12T20:33:16.775Z,23.70
2019-01-12T20:36:16.471Z,31.40
2019-01-12T20:38:51.923Z,36.03
2019-01-12T20:41:30.201Z,28.70
2019-01-12T20:44:20.651Z,28.33
2019-01-12T20:46:53.161Z,29.37
2019-01-12T20:49:31.756Z,35.67
2019-01-12T20:52:13.071Z,29.77
2019-01-12T20:55:13.135Z,33.40
2019-01-12T20:57:51.678Z,33.50
2019-01-12T21:00:54.898Z,28.43
2019-01-12T21:03:49.340Z,28.60
2019-01-12T21:06:25.067Z,30.50
2019-01-12T21:09:09.550Z,35.07
2019-01-12T21:12:13.935Z,27.83
2019-01-12T21:14:46.483Z,24.80
2019-01-12T21:17:15.912Z,27.80
2019-01-12T21:19:48.299Z,25.40
2019-01-12T21:22:16.838Z,29.93
2019-01-12T21:24:46.391Z,30.07
2019-01-12T21:27:15.933Z,33.00
2019-01-12T21:29:45.673Z,29.73
2019-01-12T21:32:15.179Z,34.57
2019-01-12T21:34:46.572Z,25.90
2019-01-12T21:37:15.933Z,24.40
2019-01-12T21:39:45.384Z,23.20
2019-01-12T21:42:14.747Z,143.83
2019-01-12T21:44:44.211Z,34.10
2019-01-12T21:47:13.560Z,43.03
2019-01-12T21:49:43.557Z,44.77
2019-01-12T21:52:13.087Z,65.77
2019-01-12T21:54:42.567Z,232.30
2019-01-12T21:57:11.999Z,31.30
2019-01-12T21:59:42.660Z,30.67
2019-01-12T22:02:12.406Z,36.27
2019-01-12T22:04:41.814Z,33.77
2019-01-12T22:07:11.329Z,52.57
2019-01-12T22:09:40.876Z,161.87
2019-01-12T22:12:10.239Z,41.40
2019-01-12T22:14:39.840Z,35.97
2019-01-12T22:17:09.328Z,148.67
2019-01-12T22:19:38.919Z,520.23
2019-01-12T22:22:08.363Z,408.27
2019-01-12T22:24:37.833Z,35.20
2019-01-12T22:27:07.419Z,27.37
2019-01-12T22:29:36.961Z,26.53
2019-01-12T22:32:06.464Z,23.27
2019-01-12T22:34:36.784Z,39.80
2019-01-12T22:37:06.270Z,29.10
2019-01-12T22:39:35.728Z,29.70
2019-01-12T22:42:05.180Z,31.13
2019-01-12T22:44:34.672Z,28.73
2019-01-12T22:47:04.136Z,33.07
2019-01-12T22:49:33.530Z,28.43
2019-01-12T22:52:03.260Z,22.63
2019-01-12T22:54:32.811Z,21.67
2019-01-12T22:57:02.204Z,30.37
2019-01-12T22:59:31.685Z,28.07
2019-01-12T23:02:01.628Z,37.23
2019-01-12T23:04:31.379Z,29.43
2019-01-12T23:07:00.912Z,27.33
2019-01-12T23:09:30.515Z,37.47
2019-01-12T23:12:00.338Z,32.87
2019-01-12T23:14:30.041Z,132.13
2019-01-12T23:16:59.683Z,739.70
2019-01-12T23:19:29.169Z,878.90
2019-01-12T23:21:58.678Z,36.50
2019-01-12T23:24:28.204Z,27.10
2019-01-12T23:26:57.680Z,32.87
2019-01-12T23:29:27.706Z,209.80
2019-01-12T23:31:57.195Z,478.93
2019-01-12T23:34:26.678Z,802.23
2019-01-12T23:36:56.390Z,383.67
2019-01-12T23:39:25.870Z,910.33
2019-01-12T23:41:55.406Z,1999.90
2019-01-12T23:44:24.958Z,1999.90
2019-01-12T23:46:54.372Z,1999.90
2019-01-12T23:49:23.854Z,1999.90
2019-01-12T23:51:53.334Z,1584.87
2019-01-12T23:54:22.900Z,1999.90
2019-01-12T23:56:52.440Z,828.23
2019-01-12T23:59:22.036Z,24.17
